Time;durP1;ratioP1;P1;durP2;ratioP2;P2;SDS_P1;SDS_P2;PMS_P1;PMS_P2;Temp;Humidity;BMP_temperature;BMP_pressure;BME280_temperature;BME280_humidity;BME280_pressure;Samples;Min_cycle;Max_cycle;Signal;HPM_P1;HPM_P2
2022/04/10 00:01:13;;;;;;;61.25;5.28;;;;;;;;;;5073321;28;20205;-74
2022/04/10 00:03:40;;;;;;;63.45;4.82;;;;;;;;;;5074430;28;20431;-73
2022/04/10 00:06:07;;;;;;;61.67;4.43;;;;;;;;;;5074739;28;20205;-73
2022/04/10 00:08:36;;;;;;;62.47;5.00;;;;;;;;;;5074993;28;20224;-74
2022/04/10 00:11:03;;;;;;;59.72;4.78;;;;;;;;;;5078156;28;20291;-74
2022/04/10 00:13:30;;;;;;;62.65;5.10;;;;;;;;;;5078378;28;20201;-73
2022/04/10 00:15:57;;;;;;;61.42;5.63;;;;;;;;;;5078637;28;20248;-74
2022/04/10 00:18:24;;;;;;;62.55;5.57;;;;;;;;;;5078100;28;20324;-72
2022/04/10 00:20:51;;;;;;;63.42;5.70;;;;;;;;;;5079702;28;20289;-73
2022/04/10 00:23:18;;;;;;;73.05;7.55;;;;;;;;;;5079354;28;20307;-73
2022/04/10 00:25:47;;;;;;;67.15;6.95;;;;;;;;;;5075841;28;20245;-73
2022/04/10 00:28:14;;;;;;;65.30;6.75;;;;;;;;;;5076374;28;20308;-74
2022/04/10 00:30:41;;;;;;;61.17;6.28;;;;;;;;;;5077178;28;20211;-74
2022/04/10 00:33:08;;;;;;;63.65;5.63;;;;;;;;;;5077646;28;20308;-74
2022/04/10 00:35:36;;;;;;;61.33;5.53;;;;;;;;;;5078346;28;20266;-74
2022/04/10 00:38:03;;;;;;;61.53;5.70;;;;;;;;;;5077608;28;20248;-73
2022/04/10 00:40:30;;;;;;;63.00;7.40;;;;;;;;;;5078866;28;20244;-74
2022/04/10 00:42:58;;;;;;;66.13;6.75;;;;;;;;;;5078130;28;20268;-73
2022/04/10 00:45:26;;;;;;;60.20;5.63;;;;;;;;;;5078177;28;20230;-73
2022/04/10 00:47:53;;;;;;;61.58;5.32;;;;;;;;;;5079424;28;20261;-73
2022/04/10 00:50:21;;;;;;;64.28;6.20;;;;;;;;;;5080135;28;20634;-74
2022/04/10 00:52:48;;;;;;;61.63;6.57;;;;;;;;;;5077965;28;20232;-74
2022/04/10 00:55:16;;;;;;;63.90;6.13;;;;;;;;;;5075782;28;20211;-73
2022/04/10 00:57:43;;;;;;;62.97;7.10;;;;;;;;;;5074284;28;20256;-74
2022/04/10 01:00:14;;;;;;;64.80;5.70;;;;;;;;;;5077649;28;20297;-74
2022/04/10 01:02:41;;;;;;;62.17;5.50;;;;;;;;;;5077498;28;20205;-71
2022/04/10 01:05:09;;;;;;;61.90;5.60;;;;;;;;;;5077513;28;20235;-74
2022/04/10 01:07:36;;;;;;;64.15;6.18;;;;;;;;;;5075873;28;20224;-74
2022/04/10 01:10:04;;;;;;;66.35;6.43;;;;;;;;;;5076686;28;20304;-73
2022/04/10 01:12:32;;;;;;;63.25;5.50;;;;;;;;;;5076854;28;20731;-73
2022/04/10 01:15:01;;;;;;;62.65;6.18;;;;;;;;;;5078916;28;20208;-74
2022/04/10 01:17:31;;;;;;;62.50;5.93;;;;;;;;;;5077032;28;20228;-74
2022/04/10 01:19:58;;;;;;;62.90;6.05;;;;;;;;;;5078464;28;20205;-73
2022/04/10 01:22:30;;;;;;;61.30;5.47;;;;;;;;;;5078989;28;20761;-73
2022/04/10 01:24:58;;;;;;;64.25;5.40;;;;;;;;;;5078219;28;20232;-73
2022/04/10 01:27:25;;;;;;;62.45;5.10;;;;;;;;;;5076226;28;20224;-73
2022/04/10 01:29:52;;;;;;;60.28;5.00;;;;;;;;;;5088794;28;20206;-72
2022/04/10 01:32:19;;;;;;;59.13;5.10;;;;;;;;;;5095416;28;20637;-74
2022/04/10 01:34:46;;;;;;;61.00;5.15;;;;;;;;;;5094830;28;20202;-73
2022/04/10 01:37:15;;;;;;;63.00;5.47;;;;;;;;;;5092940;28;20589;-74
2022/04/10 01:39:43;;;;;;;61.08;5.75;;;;;;;;;;5093792;28;20200;-74
2022/04/10 01:42:10;;;;;;;61.00;5.53;;;;;;;;;;5093599;28;20271;-73
2022/04/10 01:44:41;;;;;;;67.97;5.60;;;;;;;;;;5093531;28;20651;-75
2022/04/10 01:47:08;;;;;;;63.22;5.82;;;;;;;;;;5092656;28;20204;-74
2022/04/10 01:49:36;;;;;;;60.67;5.22;;;;;;;;;;5093074;28;20224;-74
2022/04/10 01:52:03;;;;;;;61.08;5.00;;;;;;;;;;5089065;28;20291;-74
2022/04/10 01:54:31;;;;;;;62.17;5.28;;;;;;;;;;5093257;28;20291;-74
2022/04/10 01:57:00;;;;;;;60.45;5.40;;;;;;;;;;5093642;28;20554;-75
2022/04/10 01:59:28;;;;;;;64.15;5.97;;;;;;;;;;5091472;28;20216;-75
2022/04/10 02:01:55;;;;;;;65.93;6.03;;;;;;;;;;5089701;28;20211;-73
2022/04/10 02:04:22;;;;;;;63.08;5.60;;;;;;;;;;5093697;28;20291;-75
2022/04/10 02:06:50;;;;;;;61.40;5.63;;;;;;;;;;5093108;28;20579;-75
2022/04/10 02:09:18;;;;;;;64.03;6.95;;;;;;;;;;5092516;28;20514;-75
2022/04/10 02:11:45;;;;;;;62.58;5.75;;;;;;;;;;5093292;28;20208;-75
2022/04/10 02:14:14;;;;;;;62.80;5.68;;;;;;;;;;5093063;28;20227;-75
2022/04/10 02:16:41;;;;;;;61.00;5.50;;;;;;;;;;5093422;28;20272;-75
2022/04/10 02:19:08;;;;;;;61.47;5.55;;;;;;;;;;5092315;28;20668;-75
2022/04/10 02:21:36;;;;;;;60.95;5.70;;;;;;;;;;5093066;28;20214;-75
2022/04/10 02:24:03;;;;;;;66.32;6.80;;;;;;;;;;5092137;28;20245;-75
2022/04/10 02:26:30;;;;;;;63.00;5.50;;;;;;;;;;5092791;28;20291;-75
2022/04/10 02:28:57;;;;;;;61.90;5.90;;;;;;;;;;5092103;28;20704;-75
2022/04/10 02:31:25;;;;;;;61.40;5.70;;;;;;;;;;5093326;28;20211;-75
2022/04/10 02:33:53;;;;;;;60.80;5.38;;;;;;;;;;5089708;28;20208;-75
2022/04/10 02:36:20;;;;;;;61.97;5.55;;;;;;;;;;5092779;28;20206;-73
2022/04/10 02:38:47;;;;;;;64.97;6.47;;;;;;;;;;5091967;28;20311;-75
2022/04/10 02:41:14;;;;;;;67.15;6.07;;;;;;;;;;5092787;28;20211;-74
2022/04/10 02:43:41;;;;;;;68.63;5.75;;;;;;;;;;5092704;28;20577;-75
2022/04/10 02:46:08;;;;;;;64.85;5.60;;;;;;;;;;5092010;28;20210;-75
2022/04/10 02:48:37;;;;;;;64.70;6.25;;;;;;;;;;5091641;28;20235;-75
2022/04/10 02:51:04;;;;;;;60.35;5.82;;;;;;;;;;5092569;28;20208;-74
2022/04/10 02:53:31;;;;;;;61.10;5.68;;;;;;;;;;5092413;28;20201;-75
2022/04/10 02:55:58;;;;;;;61.80;5.95;;;;;;;;;;5092906;28;20326;-73
2022/04/10 02:58:26;;;;;;;63.70;5.53;;;;;;;;;;5091714;28;20220;-74
2022/04/10 03:00:53;;;;;;;59.75;4.63;;;;;;;;;;5092452;28;20204;-74
2022/04/10 03:03:20;;;;;;;60.38;5.78;;;;;;;;;;5091349;28;20294;-75
2022/04/10 03:05:49;;;;;;;62.83;5.10;;;;;;;;;;5079901;28;20225;-74
2022/04/10 03:08:17;;;;;;;61.60;5.18;;;;;;;;;;5070975;28;20260;-75
2022/04/10 03:10:45;;;;;;;63.65;6.18;;;;;;;;;;5071967;28;20643;-74
2022/04/10 03:13:12;;;;;;;61.03;5.90;;;;;;;;;;5072133;28;20215;-74
2022/04/10 03:15:39;;;;;;;60.20;5.28;;;;;;;;;;5072327;28;20703;-73
2022/04/10 03:18:06;;;;;;;62.42;6.40;;;;;;;;;;5071728;28;20225;-75
2022/04/10 03:20:34;;;;;;;65.10;6.03;;;;;;;;;;5077660;28;20201;-74
2022/04/10 03:23:08;;;;;;;61.03;6.05;;;;;;;;;;5078924;28;20228;-74
2022/04/10 03:25:35;;;;;;;60.90;5.68;;;;;;;;;;5078963;28;20220;-73
2022/04/10 03:28:02;;;;;;;70.03;6.68;;;;;;;;;;5075371;28;20256;-74
2022/04/10 03:30:29;;;;;;;64.70;6.65;;;;;;;;;;5075986;28;20240;-74
2022/04/10 03:32:57;;;;;;;63.30;5.88;;;;;;;;;;5075056;28;20302;-74
2022/04/10 03:35:24;;;;;;;61.83;5.70;;;;;;;;;;5078952;28;20707;-74
2022/04/10 03:37:51;;;;;;;61.25;5.32;;;;;;;;;;5083897;28;20790;-75
2022/04/10 03:40:20;;;;;;;67.90;6.65;;;;;;;;;;5101903;28;20205;-74
2022/04/10 03:42:47;;;;;;;64.05;6.72;;;;;;;;;;5102019;28;20204;-75
2022/04/10 03:45:14;;;;;;;63.22;6.22;;;;;;;;;;5096285;28;20625;-74
2022/04/10 03:47:42;;;;;;;63.33;6.20;;;;;;;;;;5094577;28;20230;-74
2022/04/10 03:50:09;;;;;;;65.20;6.47;;;;;;;;;;5095515;28;20216;-74
2022/04/10 03:52:37;;;;;;;61.80;6.00;;;;;;;;;;5095310;28;20208;-73
2022/04/10 03:55:04;;;;;;;62.22;5.90;;;;;;;;;;5095854;28;20283;-74
2022/04/10 03:57:33;;;;;;;61.35;5.90;;;;;;;;;;5094775;28;20312;-74
2022/04/10 04:00:00;;;;;;;61.33;5.38;;;;;;;;;;5096304;28;20200;-74
2022/04/10 04:02:27;;;;;;;61.35;5.72;;;;;;;;;;5095373;28;20218;-74
2022/04/10 04:04:54;;;;;;;63.20;5.55;;;;;;;;;;5095560;28;20320;-73
2022/04/10 04:07:21;;;;;;;62.30;7.07;;;;;;;;;;5094036;28;20223;-71
2022/04/10 04:09:48;;;;;;;62.10;5.93;;;;;;;;;;5091556;28;20602;-74
2022/04/10 04:12:15;;;;;;;63.28;6.32;;;;;;;;;;5095114;28;20249;-75
2022/04/10 04:14:44;;;;;;;60.70;6.35;;;;;;;;;;5095290;28;20291;-73
2022/04/10 04:17:11;;;;;;;63.45;7.05;;;;;;;;;;5093784;28;20300;-75
2022/04/10 04:19:38;;;;;;;62.13;6.60;;;;;;;;;;5094471;28;20200;-74
2022/04/10 04:22:06;;;;;;;67.72;5.78;;;;;;;;;;5095359;28;20250;-74
2022/04/10 04:24:34;;;;;;;63.25;6.55;;;;;;;;;;5095149;28;20744;-74
2022/04/10 04:27:01;;;;;;;61.47;6.20;;;;;;;;;;5094941;28;20208;-74
2022/04/10 04:29:28;;;;;;;61.78;6.05;;;;;;;;;;5094328;28;20208;-74
2022/04/10 04:31:57;;;;;;;63.20;6.90;;;;;;;;;;5096247;28;20200;-74
2022/04/10 04:34:24;;;;;;;66.13;7.50;;;;;;;;;;5095860;28;20215;-75
2022/04/10 04:36:51;;;;;;;62.50;6.78;;;;;;;;;;5095350;28;20386;-75
2022/04/10 04:39:18;;;;;;;61.58;6.30;;;;;;;;;;5095068;28;20322;-75
2022/04/10 04:41:45;;;;;;;61.40;6.28;;;;;;;;;;5093070;28;20269;-74
2022/04/10 04:44:12;;;;;;;61.63;6.25;;;;;;;;;;5097283;28;20598;-75
2022/04/10 04:46:39;;;;;;;61.88;6.63;;;;;;;;;;5097177;28;20281;-74
2022/04/10 04:49:08;;;;;;;62.10;6.47;;;;;;;;;;5098019;28;20238;-74
2022/04/10 04:51:36;;;;;;;63.53;7.55;;;;;;;;;;5099575;28;20273;-74
2022/04/10 04:54:04;;;;;;;62.03;6.32;;;;;;;;;;5099139;28;20257;-73
2022/04/10 04:56:31;;;;;;;65.18;6.95;;;;;;;;;;5100983;28;20231;-74
2022/04/10 04:58:58;;;;;;;62.33;5.90;;;;;;;;;;5099139;28;20247;-74
2022/04/10 05:01:25;;;;;;;61.15;6.13;;;;;;;;;;5098469;28;20285;-75
2022/04/10 05:03:52;;;;;;;62.05;6.70;;;;;;;;;;5100937;28;20230;-75
2022/04/10 05:06:21;;;;;;;64.05;6.40;;;;;;;;;;5095007;28;20315;-75
2022/04/10 05:08:48;;;;;;;66.97;7.13;;;;;;;;;;5093210;28;20244;-75
2022/04/10 05:11:15;;;;;;;66.70;8.05;;;;;;;;;;5092813;28;20841;-75
2022/04/10 05:13:43;;;;;;;65.30;7.22;;;;;;;;;;5090401;28;20214;-74
2022/04/10 05:16:10;;;;;;;62.95;6.97;;;;;;;;;;5094264;28;20204;-74
2022/04/10 05:18:37;;;;;;;62.95;6.90;;;;;;;;;;5093364;28;20822;-74
2022/04/10 05:21:05;;;;;;;62.40;5.93;;;;;;;;;;5093857;28;20243;-74
2022/04/10 05:23:33;;;;;;;61.88;6.80;;;;;;;;;;5093751;28;20258;-74
2022/04/10 05:26:00;;;;;;;64.40;7.78;;;;;;;;;;5094245;28;20311;-72
2022/04/10 05:28:27;;;;;;;62.63;7.03;;;;;;;;;;5092746;28;20224;-74
2022/04/10 05:30:55;;;;;;;62.40;7.03;;;;;;;;;;5093476;28;20672;-74
2022/04/10 05:33:22;;;;;;;66.13;7.55;;;;;;;;;;5093513;28;20208;-75
2022/04/10 05:35:50;;;;;;;61.40;6.25;;;;;;;;;;5093587;28;20293;-74
2022/04/10 05:38:17;;;;;;;62.10;7.13;;;;;;;;;;5092515;28;20231;-73
2022/04/10 05:40:52;;;;;;;61.83;6.80;;;;;;;;;;5093399;28;20209;-75
2022/04/10 05:43:19;;;;;;;67.60;6.80;;;;;;;;;;5093059;28;20230;-74
2022/04/10 05:45:46;;;;;;;62.45;5.75;;;;;;;;;;5089965;28;20316;-75
2022/04/10 05:48:14;;;;;;;63.17;6.43;;;;;;;;;;5092314;28;20224;-75
2022/04/10 05:50:41;;;;;;;61.83;6.63;;;;;;;;;;5092998;28;20209;-74
2022/04/10 05:53:08;;;;;;;61.88;6.05;;;;;;;;;;5093542;28;20287;-74
2022/04/10 05:55:35;;;;;;;62.17;7.38;;;;;;;;;;5093282;28;20622;-75
2022/04/10 05:58:04;;;;;;;66.35;8.27;;;;;;;;;;5091454;28;20309;-75
2022/04/10 06:00:32;;;;;;;64.40;6.78;;;;;;;;;;5093454;28;20277;-74
2022/04/10 06:03:02;;;;;;;63.45;7.00;;;;;;;;;;5093355;28;20562;-75
2022/04/10 06:05:29;;;;;;;62.78;6.75;;;;;;;;;;5093073;28;20217;-74
2022/04/10 06:07:56;;;;;;;67.03;6.75;;;;;;;;;;5092677;28;20238;-75
2022/04/10 06:10:23;;;;;;;61.88;6.40;;;;;;;;;;5093092;28;20287;-74
2022/04/10 06:12:50;;;;;;;62.85;7.40;;;;;;;;;;5092939;28;20204;-74
2022/04/10 06:15:20;;;;;;;63.15;6.90;;;;;;;;;;5092786;28;20220;-73
2022/04/10 06:17:47;;;;;;;63.33;7.20;;;;;;;;;;5080123;28;20225;-74
2022/04/10 06:20:14;;;;;;;63.67;7.82;;;;;;;;;;5074266;28;20308;-73
2022/04/10 06:22:41;;;;;;;62.40;7.13;;;;;;;;;;5074350;28;20257;-75
2022/04/10 06:25:09;;;;;;;66.60;7.88;;;;;;;;;;5074118;28;20247;-74
2022/04/10 06:27:36;;;;;;;64.32;6.93;;;;;;;;;;5073114;28;20316;-74
2022/04/10 06:30:04;;;;;;;67.07;7.93;;;;;;;;;;5073350;28;20251;-74
2022/04/10 06:32:32;;;;;;;65.15;6.97;;;;;;;;;;5072691;28;20579;-74
2022/04/10 06:35:00;;;;;;;62.55;6.95;;;;;;;;;;5072416;28;20201;-74
2022/04/10 06:37:27;;;;;;;66.25;6.28;;;;;;;;;;5072617;28;20256;-74
2022/04/10 06:39:54;;;;;;;62.95;7.43;;;;;;;;;;5072785;28;20424;-75
2022/04/10 06:42:21;;;;;;;63.05;6.60;;;;;;;;;;5073012;28;20209;-74
2022/04/10 06:44:48;;;;;;;62.05;6.60;;;;;;;;;;5073640;28;20239;-74
2022/04/10 06:47:15;;;;;;;63.03;7.38;;;;;;;;;;5073319;28;20288;-75
2022/04/10 06:49:44;;;;;;;62.70;6.50;;;;;;;;;;5070911;28;20218;-73
2022/04/10 06:52:11;;;;;;;63.22;6.20;;;;;;;;;;5073536;28;20201;-74
2022/04/10 06:54:38;;;;;;;62.20;5.75;;;;;;;;;;5073758;28;20206;-75
2022/04/10 06:57:05;;;;;;;62.67;5.95;;;;;;;;;;5073314;28;20653;-75
2022/04/10 06:59:33;;;;;;;62.28;6.07;;;;;;;;;;5073072;28;20208;-76
2022/04/10 07:02:00;;;;;;;63.55;6.93;;;;;;;;;;5073703;28;20235;-75
2022/04/10 07:04:27;;;;;;;62.20;6.05;;;;;;;;;;5073425;28;20202;-75
2022/04/10 07:06:55;;;;;;;61.50;6.53;;;;;;;;;;5072713;28;20228;-72
2022/04/10 07:09:22;;;;;;;61.92;6.15;;;;;;;;;;5071555;28;20598;-75
2022/04/10 07:11:49;;;;;;;61.78;6.30;;;;;;;;;;5072077;28;20209;-75
2022/04/10 07:14:16;;;;;;;62.20;6.60;;;;;;;;;;5072016;28;20206;-75
2022/04/10 07:16:44;;;;;;;62.10;5.63;;;;;;;;;;5072807;28;20204;-75
2022/04/10 07:19:11;;;;;;;61.80;6.40;;;;;;;;;;5071414;28;20479;-76
2022/04/10 07:24:24;;;;;;;61.60;5.77;;;;;;;;;;5072285;28;20497;-75
2022/04/10 07:26:52;;;;;;;62.47;6.57;;;;;;;;;;5071796;28;20488;-75
2022/04/10 07:29:19;;;;;;;62.30;6.60;;;;;;;;;;5072165;28;20851;-75
2022/04/10 07:31:46;;;;;;;61.10;6.10;;;;;;;;;;5072290;28;20456;-75
2022/04/10 07:34:13;;;;;;;63.57;6.50;;;;;;;;;;5072069;28;20476;-76
2022/04/10 07:36:41;;;;;;;60.87;6.00;;;;;;;;;;5071914;28;20548;-75
2022/04/10 07:39:08;;;;;;;61.27;5.53;;;;;;;;;;5070846;28;21034;-75
2022/04/10 07:41:36;;;;;;;61.97;6.37;;;;;;;;;;5073576;28;20472;-75
2022/04/10 07:44:03;;;;;;;62.80;6.10;;;;;;;;;;5073889;28;20460;-75
2022/04/10 07:49:15;;;;;;;64.23;6.60;;;;;;;;;;5072581;28;20478;-75
2022/04/10 07:51:43;;;;;;;61.97;6.07;;;;;;;;;;5076556;28;20460;-75
2022/04/10 07:54:11;;;;;;;62.77;6.10;;;;;;;;;;5092923;28;20541;-75
2022/04/10 07:56:39;;;;;;;62.37;6.60;;;;;;;;;;5092430;28;20916;-77
2022/04/10 07:59:07;;;;;;;62.10;6.73;;;;;;;;;;5091114;28;20486;-75
2022/04/10 08:01:34;;;;;;;63.50;6.00;;;;;;;;;;5091926;28;20449;-76
2022/04/10 08:04:01;;;;;;;64.03;6.30;;;;;;;;;;5092013;28;20504;-76
2022/04/10 08:06:28;;;;;;;62.70;6.20;;;;;;;;;;5092143;28;20491;-75
2022/04/10 08:08:55;;;;;;;66.57;6.30;;;;;;;;;;5091696;28;20465;-76
2022/04/10 08:11:23;;;;;;;63.00;5.63;;;;;;;;;;5091719;28;20908;-76
2022/04/10 08:13:51;;;;;;;60.90;5.30;;;;;;;;;;5092424;28;20481;-76
2022/04/10 08:16:18;;;;;;;64.23;5.83;;;;;;;;;;5093355;28;20477;-75
2022/04/10 08:18:46;;;;;;;61.23;5.87;;;;;;;;;;5093937;28;20476;-73
2022/04/10 08:21:13;;;;;;;62.77;5.57;;;;;;;;;;5097027;28;20550;-75
2022/04/10 08:23:40;;;;;;;60.97;5.30;;;;;;;;;;5099223;28;20553;-75
2022/04/10 08:26:07;;;;;;;62.57;5.47;;;;;;;;;;5103603;28;20569;-75
2022/04/10 08:28:34;;;;;;;63.63;5.47;;;;;;;;;;5101860;28;20579;-75
2022/04/10 08:31:03;;;;;;;62.70;5.23;;;;;;;;;;5103029;28;20453;-75
2022/04/10 08:33:30;;;;;;;61.37;6.00;;;;;;;;;;5099375;28;20544;-75
2022/04/10 08:35:57;;;;;;;61.30;5.20;;;;;;;;;;5094625;28;20878;-76
2022/04/10 08:38:24;;;;;;;60.27;5.30;;;;;;;;;;5093894;28;20477;-76
2022/04/10 08:40:55;;;;;;;61.97;5.20;;;;;;;;;;5094378;28;20971;-71
2022/04/10 08:43:22;;;;;;;61.10;5.80;;;;;;;;;;5094548;28;20547;-75
2022/04/10 08:45:50;;;;;;;61.67;6.27;;;;;;;;;;5094231;28;20446;-73
2022/04/10 08:48:18;;;;;;;61.00;5.57;;;;;;;;;;5093637;28;20466;-75
2022/04/10 08:50:45;;;;;;;60.87;5.33;;;;;;;;;;5094114;28;20446;-75
2022/04/10 08:53:13;;;;;;;62.03;5.60;;;;;;;;;;5093433;28;20891;-74
2022/04/10 08:55:40;;;;;;;61.83;5.97;;;;;;;;;;5091417;28;20827;-74
2022/04/10 08:58:07;;;;;;;63.43;5.40;;;;;;;;;;5094025;28;20472;-74
2022/04/10 09:00:35;;;;;;;60.87;5.43;;;;;;;;;;5095836;28;20457;-74
2022/04/10 09:03:03;;;;;;;63.00;6.10;;;;;;;;;;5096762;28;20870;-74
2022/04/10 09:05:31;;;;;;;60.60;5.60;;;;;;;;;;5097282;28;20523;-73
2022/04/10 09:08:09;;;;;;;61.40;5.93;;;;;;;;;;5096827;28;20500;-73
2022/04/10 09:10:53;;;;;;;63.00;5.57;;;;;;;;;;5096252;28;21013;-74
2022/04/10 09:13:25;;;;;;;61.90;5.80;;;;;;;;;;5095888;28;20510;-74
2022/04/10 09:15:52;;;;;;;62.17;5.50;;;;;;;;;;5095980;28;20460;-74
2022/04/10 09:18:19;;;;;;;62.60;6.20;;;;;;;;;;5094363;28;20807;-75
2022/04/10 09:21:05;;;;;;;60.50;5.80;;;;;;;;;;5097468;28;20461;-75
2022/04/10 09:23:33;;;;;;;63.33;5.57;;;;;;;;;;5098388;28;20446;-73
2022/04/10 09:26:00;;;;;;;64.23;5.73;;;;;;;;;;5093762;28;20451;-74
2022/04/10 09:28:41;;;;;;;61.10;6.30;;;;;;;;;;5101115;28;20561;-73
2022/04/10 09:31:23;;;;;;;63.97;5.97;;;;;;;;;;5103475;28;20950;-74
2022/04/10 09:33:50;;;;;;;62.83;5.53;;;;;;;;;;5101515;28;20469;-74
2022/04/10 09:36:28;;;;;;;65.67;6.33;;;;;;;;;;5102091;28;20446;-74
2022/04/10 09:38:55;;;;;;;61.97;5.80;;;;;;;;;;5100348;28;20556;-73
2022/04/10 09:41:22;;;;;;;65.33;6.27;;;;;;;;;;5096381;28;20473;-74
2022/04/10 09:43:50;;;;;;;64.77;6.20;;;;;;;;;;5096418;28;20612;-74
2022/04/10 09:46:17;;;;;;;60.77;5.00;;;;;;;;;;5100972;28;20482;-74
2022/04/10 09:48:44;;;;;;;63.47;5.80;;;;;;;;;;5099007;28;21020;-74
2022/04/10 09:51:12;;;;;;;62.20;6.10;;;;;;;;;;5099823;28;20522;-74
2022/04/10 09:53:40;;;;;;;61.70;5.23;;;;;;;;;;5102130;28;20474;-73
2022/04/10 09:56:08;;;;;;;63.50;5.50;;;;;;;;;;5098979;28;20541;-74
2022/04/10 09:58:36;;;;;;;62.60;5.17;;;;;;;;;;5096137;28;20553;-74
2022/04/10 10:01:06;;;;;;;63.40;5.17;;;;;;;;;;5103638;28;20443;-74
2022/04/10 10:03:36;;;;;;;61.73;5.80;;;;;;;;;;5106279;28;20446;-74
2022/04/10 10:06:04;;;;;;;62.70;5.57;;;;;;;;;;5102017;28;20454;-74
2022/04/10 10:08:31;;;;;;;60.50;4.80;;;;;;;;;;5103128;28;20482;-74
2022/04/10 10:10:59;;;;;;;60.80;5.00;;;;;;;;;;5101190;28;20594;-73
2022/04/10 10:13:27;;;;;;;61.60;5.20;;;;;;;;;;5103355;28;20464;-73
2022/04/10 10:15:55;;;;;;;59.50;5.00;;;;;;;;;;5101191;28;20446;-73
2022/04/10 10:18:22;;;;;;;61.00;4.83;;;;;;;;;;5100245;28;20458;-73
2022/04/10 10:20:50;;;;;;;62.10;4.57;;;;;;;;;;5098455;28;20990;-74
2022/04/10 10:23:17;;;;;;;61.90;5.20;;;;;;;;;;5099554;28;20453;-74
2022/04/10 10:25:48;;;;;;;61.77;4.60;;;;;;;;;;5095380;28;20448;-75
2022/04/10 10:28:34;;;;;;;64.87;5.50;;;;;;;;;;5096515;28;20528;-74
2022/04/10 10:31:18;;;;;;;63.23;5.17;;;;;;;;;;5104412;28;20418;-74
2022/04/10 10:33:50;;;;;;;61.80;5.33;;;;;;;;;;5101563;28;20454;-74
2022/04/10 10:36:22;;;;;;;62.03;5.30;;;;;;;;;;5098725;28;20503;-73
2022/04/10 10:38:51;;;;;;;63.20;5.27;;;;;;;;;;5098185;28;20565;-74
2022/04/10 10:41:32;;;;;;;60.93;5.50;;;;;;;;;;5098954;28;20450;-74
2022/04/10 10:44:15;;;;;;;61.47;5.60;;;;;;;;;;5098814;28;20457;-74
2022/04/10 10:46:57;;;;;;;62.70;6.17;;;;;;;;;;5097675;28;20535;-75
2022/04/10 10:49:24;;;;;;;61.50;5.17;;;;;;;;;;5094526;28;21012;-75
2022/04/10 10:51:51;;;;;;;62.07;6.23;;;;;;;;;;5095088;28;20793;-73
2022/04/10 10:54:21;;;;;;;62.93;6.60;;;;;;;;;;5092938;28;20529;-75
2022/04/10 10:56:50;;;;;;;62.57;6.60;;;;;;;;;;5093703;28;20446;-75
2022/04/10 10:59:22;;;;;;;62.87;5.63;;;;;;;;;;5086670;28;20467;-75
2022/04/10 11:01:53;;;;;;;62.77;5.83;;;;;;;;;;5072874;28;20962;-73
2022/04/10 11:04:21;;;;;;;60.17;4.93;;;;;;;;;;5074587;28;20481;-73
2022/04/10 11:06:49;;;;;;;61.97;5.50;;;;;;;;;;5072515;28;20490;-75
2022/04/10 11:09:23;;;;;;;63.67;4.83;;;;;;;;;;5072780;28;20482;-73
2022/04/10 11:11:51;;;;;;;61.87;5.70;;;;;;;;;;5074718;28;20971;-73
2022/04/10 11:14:39;;;;;;;60.80;4.87;;;;;;;;;;5075207;28;20538;-72
2022/04/10 11:17:10;;;;;;;60.10;4.30;;;;;;;;;;5076958;28;20453;-73
2022/04/10 11:19:37;;;;;;;62.40;5.13;;;;;;;;;;5076123;28;20460;-76
2022/04/10 11:22:07;;;;;;;61.60;4.70;;;;;;;;;;5074003;28;20544;-73
2022/04/10 11:24:36;;;;;;;59.67;4.30;;;;;;;;;;5076498;28;20494;-72
2022/04/10 11:27:05;;;;;;;62.90;4.70;;;;;;;;;;5077130;28;20551;-74
2022/04/10 11:29:33;;;;;;;59.57;5.00;;;;;;;;;;5079721;28;20562;-74
2022/04/10 11:32:06;;;;;;;59.67;4.50;;;;;;;;;;5092106;28;20531;-73
2022/04/10 11:34:33;;;;;;;59.70;4.03;;;;;;;;;;5097256;28;20455;-74
2022/04/10 11:37:03;;;;;;;59.50;4.17;;;;;;;;;;5096520;28;20568;-74
2022/04/10 11:39:31;;;;;;;59.77;4.27;;;;;;;;;;5100721;28;20520;-73
2022/04/10 11:42:00;;;;;;;59.80;4.50;;;;;;;;;;5099952;28;20547;-73
2022/04/10 11:44:27;;;;;;;59.97;4.40;;;;;;;;;;5096614;28;20543;-73
2022/04/10 11:46:54;;;;;;;59.70;3.90;;;;;;;;;;5098352;28;20510;-73
2022/04/10 11:49:23;;;;;;;61.17;4.37;;;;;;;;;;5101663;28;20534;-73
2022/04/10 11:51:53;;;;;;;60.27;4.40;;;;;;;;;;5101152;28;20484;-74
2022/04/10 11:54:31;;;;;;;60.17;4.63;;;;;;;;;;5100251;28;20531;-73
2022/04/10 11:56:59;;;;;;;60.73;4.40;;;;;;;;;;5104879;28;20549;-74
2022/04/10 11:59:27;;;;;;;62.10;4.67;;;;;;;;;;5103892;28;21004;-75
2022/04/10 12:01:55;;;;;;;59.20;4.33;;;;;;;;;;5096860;28;20527;-73
2022/04/10 12:04:23;;;;;;;63.33;5.23;;;;;;;;;;5085456;28;20443;-73
2022/04/10 12:06:51;;;;;;;61.43;4.40;;;;;;;;;;5082790;28;20451;-73
2022/04/10 12:09:18;;;;;;;60.57;4.47;;;;;;;;;;5077655;28;20550;-73
2022/04/10 12:11:45;;;;;;;62.83;5.40;;;;;;;;;;5077604;28;20549;-73
2022/04/10 12:14:16;;;;;;;76.13;6.00;;;;;;;;;;5078963;28;20894;-74
2022/04/10 12:16:43;;;;;;;61.30;5.07;;;;;;;;;;5081297;28;20453;-74
2022/04/10 12:19:10;;;;;;;61.47;5.10;;;;;;;;;;5082541;28;20505;-73
2022/04/10 12:21:48;;;;;;;59.90;4.47;;;;;;;;;;5081549;28;20451;-72
2022/04/10 12:24:20;;;;;;;59.87;4.70;;;;;;;;;;5082811;28;21006;-73
2022/04/10 12:26:48;;;;;;;64.17;5.83;;;;;;;;;;5085359;28;20446;-75
2022/04/10 12:29:15;;;;;;;62.13;4.67;;;;;;;;;;5083664;28;20487;-75
2022/04/10 12:31:43;;;;;;;61.67;4.83;;;;;;;;;;5086727;28;20524;-74
2022/04/10 12:34:11;;;;;;;60.00;4.90;;;;;;;;;;5090779;28;20442;-74
2022/04/10 12:36:47;;;;;;;61.93;5.00;;;;;;;;;;5105626;28;20454;-72
2022/04/10 12:39:23;;;;;;;62.97;4.90;;;;;;;;;;5101818;28;20471;-73
2022/04/10 12:41:58;;;;;;;66.27;5.40;;;;;;;;;;5104007;28;20525;-73
2022/04/10 12:44:25;;;;;;;61.13;5.03;;;;;;;;;;5105639;28;20442;-73
2022/04/10 12:46:52;;;;;;;61.77;5.40;;;;;;;;;;5104330;28;20467;-72
2022/04/10 12:49:20;;;;;;;61.17;5.20;;;;;;;;;;5099274;28;20467;-74
2022/04/10 12:51:52;;;;;;;59.70;4.80;;;;;;;;;;5100027;28;20448;-74
2022/04/10 12:54:20;;;;;;;61.67;4.97;;;;;;;;;;5100229;28;20448;-74
2022/04/10 12:56:53;;;;;;;60.40;5.00;;;;;;;;;;5097862;28;20492;-74
2022/04/10 12:59:20;;;;;;;59.33;4.10;;;;;;;;;;5097320;28;20455;-73
2022/04/10 13:01:53;;;;;;;61.67;4.23;;;;;;;;;;5099204;28;20955;-74
2022/04/10 13:04:28;;;;;;;59.30;4.40;;;;;;;;;;5100082;28;20963;-74
2022/04/10 13:06:57;;;;;;;61.07;4.30;;;;;;;;;;5096339;28;20450;-74
2022/04/10 13:09:24;;;;;;;61.17;3.80;;;;;;;;;;5099204;28;20549;-75
2022/04/10 13:11:53;;;;;;;59.67;3.67;;;;;;;;;;5102056;28;20448;-75
2022/04/10 13:14:20;;;;;;;61.30;4.67;;;;;;;;;;5101478;28;20473;-74
2022/04/10 13:16:49;;;;;;;60.33;3.70;;;;;;;;;;5100638;28;20482;-73
2022/04/10 13:19:17;;;;;;;60.30;3.87;;;;;;;;;;5101630;28;20833;-74
2022/04/10 13:21:45;;;;;;;59.27;4.13;;;;;;;;;;5098841;28;20453;-74
2022/04/10 13:24:14;;;;;;;60.90;3.90;;;;;;;;;;5098297;28;20443;-74
2022/04/10 13:26:42;;;;;;;61.87;5.23;;;;;;;;;;5099002;28;20506;-73
2022/04/10 13:29:10;;;;;;;60.77;4.20;;;;;;;;;;5099708;28;20470;-74
2022/04/10 13:31:37;;;;;;;67.33;7.10;;;;;;;;;;5097722;28;20450;-74
2022/04/10 13:34:05;;;;;;;63.70;6.27;;;;;;;;;;5096424;28;20446;-73
2022/04/10 13:36:32;;;;;;;61.30;5.10;;;;;;;;;;5093115;28;20546;-74
2022/04/10 13:38:59;;;;;;;62.47;5.50;;;;;;;;;;5095353;28;20490;-74
2022/04/10 13:41:28;;;;;;;60.77;4.20;;;;;;;;;;5096671;28;20450;-73
2022/04/10 13:43:57;;;;;;;60.93;4.37;;;;;;;;;;5096711;28;20450;-73
2022/04/10 13:46:24;;;;;;;59.60;4.20;;;;;;;;;;5096970;28;20457;-74
2022/04/10 13:48:51;;;;;;;67.27;5.80;;;;;;;;;;5096717;28;20477;-73
2022/04/10 13:51:18;;;;;;;61.87;4.40;;;;;;;;;;5099150;28;20519;-72
2022/04/10 13:53:45;;;;;;;59.77;3.83;;;;;;;;;;5101507;28;20447;-73
2022/04/10 13:56:13;;;;;;;61.20;4.57;;;;;;;;;;5103794;28;20507;-73
2022/04/10 13:58:41;;;;;;;60.43;4.80;;;;;;;;;;5102073;28;20526;-73
2022/04/10 14:01:08;;;;;;;60.57;4.43;;;;;;;;;;5102013;28;20503;-73
2022/04/10 14:03:35;;;;;;;60.00;4.60;;;;;;;;;;5102711;28;20517;-73
2022/04/10 14:06:03;;;;;;;60.30;4.63;;;;;;;;;;5100068;28;20538;-73
2022/04/10 14:08:30;;;;;;;61.43;4.13;;;;;;;;;;5097355;28;20545;-74
2022/04/10 14:10:57;;;;;;;62.47;4.37;;;;;;;;;;5101761;28;20446;-73
2022/04/10 14:13:24;;;;;;;61.33;3.90;;;;;;;;;;5102816;28;20537;-73
2022/04/10 14:15:53;;;;;;;60.27;4.27;;;;;;;;;;5101320;28;20882;-73
2022/04/10 14:18:20;;;;;;;59.73;4.53;;;;;;;;;;5102824;28;20521;-73
2022/04/10 14:20:47;;;;;;;60.13;4.10;;;;;;;;;;5102046;28;20450;-72
2022/04/10 14:23:14;;;;;;;63.13;4.60;;;;;;;;;;5101520;28;21000;-74
2022/04/10 14:25:41;;;;;;;66.43;4.80;;;;;;;;;;5100318;28;20426;-74
2022/04/10 14:28:08;;;;;;;61.70;4.83;;;;;;;;;;5096896;28;20549;-73
2022/04/10 14:30:35;;;;;;;60.07;4.20;;;;;;;;;;5094896;28;20479;-73
2022/04/10 14:33:04;;;;;;;59.97;4.53;;;;;;;;;;5094042;28;20449;-74
2022/04/10 14:35:31;;;;;;;60.90;4.30;;;;;;;;;;5093345;28;20936;-73
2022/04/10 14:37:59;;;;;;;60.30;4.30;;;;;;;;;;5092175;28;20490;-74
2022/04/10 14:40:26;;;;;;;62.40;3.80;;;;;;;;;;5092779;28;21028;-73
2022/04/10 14:42:53;;;;;;;61.10;4.07;;;;;;;;;;5094569;28;20443;-74